sensor_id;sensor_type;location;lat;lon;timestamp;temperature;humidity
18888;DHT22;9576;47.792;9.628;2022-08-04T00:01:20;20.70;99.90
18888;DHT22;9576;47.792;9.628;2022-08-04T00:04:30;20.70;99.90
18888;DHT22;9576;47.792;9.628;2022-08-04T00:07:40;20.70;99.90
18888;DHT22;9576;47.792;9.628;2022-08-04T00:10:48;20.60;99.90
18888;DHT22;9576;47.792;9.628;2022-08-04T00:13:55;20.60;99.90
18888;DHT22;9576;47.792;9.628;2022-08-04T00:16:58;20.60;99.90
18888;DHT22;9576;47.792;9.628;2022-08-04T00:20:03;20.60;99.90
18888;DHT22;9576;47.792;9.628;2022-08-04T00:23:07;20.50;99.90
18888;DHT22;9576;47.792;9.628;2022-08-04T00:26:10;20.50;99.90
18888;DHT22;9576;47.792;9.628;2022-08-04T00:29:12;20.40;99.90
18888;DHT22;9576;47.792;9.628;2022-08-04T00:32:17;20.50;99.90
18888;DHT22;9576;47.792;9.628;2022-08-04T00:35:20;20.40;99.90
18888;DHT22;9576;47.792;9.628;2022-08-04T00:38:23;20.40;99.90
18888;DHT22;9576;47.792;9.628;2022-08-04T00:41:37;20.30;99.90
18888;DHT22;9576;47.792;9.628;2022-08-04T00:44:52;20.30;99.90
18888;DHT22;9576;47.792;9.628;2022-08-04T00:48:07;20.20;99.90
18888;DHT22;9576;47.792;9.628;2022-08-04T00:51:28;20.10;99.90
18888;DHT22;9576;47.792;9.628;2022-08-04T00:54:37;20.10;99.90
18888;DHT22;9576;47.792;9.628;2022-08-04T00:57:54;20.10;99.90
18888;DHT22;9576;47.792;9.628;2022-08-04T01:01:02;20.10;99.90
18888;DHT22;9576;47.792;9.628;2022-08-04T01:04:10;20.10;99.90
18888;DHT22;9576;47.792;9.628;2022-08-04T01:07:34;20.00;99.90
18888;DHT22;9576;47.792;9.628;2022-08-04T01:10:47;20.10;99.90
18888;DHT22;9576;47.792;9.628;2022-08-04T01:14:04;20.00;99.90
18888;DHT22;9576;47.792;9.628;2022-08-04T01:17:20;20.00;99.90
18888;DHT22;9576;47.792;9.628;2022-08-04T01:20:24;19.90;99.90
18888;DHT22;9576;47.792;9.628;2022-08-04T01:27:24;19.90;99.90
18888;DHT22;9576;47.792;9.628;2022-08-04T01:30:29;19.80;99.90
18888;DHT22;9576;47.792;9.628;2022-08-04T01:33:35;19.90;99.90
18888;DHT22;9576;47.792;9.628;2022-08-04T01:36:46;19.80;99.90
18888;DHT22;9576;47.792;9.628;2022-08-04T01:39:50;19.80;99.90
18888;DHT22;9576;47.792;9.628;2022-08-04T01:42:53;19.80;99.90
18888;DHT22;9576;47.792;9.628;2022-08-04T01:45:59;19.80;99.90
18888;DHT22;9576;47.792;9.628;2022-08-04T01:49:02;19.70;99.90
18888;DHT22;9576;47.792;9.628;2022-08-04T01:52:07;19.60;99.90
18888;DHT22;9576;47.792;9.628;2022-08-04T01:55:12;19.50;99.90
18888;DHT22;9576;47.792;9.628;2022-08-04T01:58:17;19.30;99.90
18888;DHT22;9576;47.792;9.628;2022-08-04T02:01:21;19.10;99.90
18888;DHT22;9576;47.792;9.628;2022-08-04T02:04:23;19.10;99.90
18888;DHT22;9576;47.792;9.628;2022-08-04T02:07:49;19.10;99.90
18888;DHT22;9576;47.792;9.628;2022-08-04T02:10:59;19.20;99.90
18888;DHT22;9576;47.792;9.628;2022-08-04T02:14:12;19.30;99.90
18888;DHT22;9576;47.792;9.628;2022-08-04T02:17:49;19.30;99.90
18888;DHT22;9576;47.792;9.628;2022-08-04T02:20:54;19.30;99.90
18888;DHT22;9576;47.792;9.628;2022-08-04T02:24:01;19.30;99.90
18888;DHT22;9576;47.792;9.628;2022-08-04T02:27:07;19.20;99.90
18888;DHT22;9576;47.792;9.628;2022-08-04T02:30:10;19.10;99.90
18888;DHT22;9576;47.792;9.628;2022-08-04T02:33:18;19.20;99.90
18888;DHT22;9576;47.792;9.628;2022-08-04T02:36:25;19.20;99.90
18888;DHT22;9576;47.792;9.628;2022-08-04T02:39:34;19.20;99.90
18888;DHT22;9576;47.792;9.628;2022-08-04T02:42:37;19.20;99.90
18888;DHT22;9576;47.792;9.628;2022-08-04T02:45:41;19.10;99.90
18888;DHT22;9576;47.792;9.628;2022-08-04T02:48:47;19.10;99.90
18888;DHT22;9576;47.792;9.628;2022-08-04T02:51:51;19.00;99.90
18888;DHT22;9576;47.792;9.628;2022-08-04T02:54:56;19.00;99.90
18888;DHT22;9576;47.792;9.628;2022-08-04T02:58:02;18.90;99.90
18888;DHT22;9576;47.792;9.628;2022-08-04T03:01:05;18.90;99.90
18888;DHT22;9576;47.792;9.628;2022-08-04T03:04:22;18.90;99.90
18888;DHT22;9576;47.792;9.628;2022-08-04T03:07:51;18.90;99.90
18888;DHT22;9576;47.792;9.628;2022-08-04T03:18:44;18.50;99.90
18888;DHT22;9576;47.792;9.628;2022-08-04T03:22:17;18.40;99.90
18888;DHT22;9576;47.792;9.628;2022-08-04T03:25:53;18.50;99.90
18888;DHT22;9576;47.792;9.628;2022-08-04T03:29:19;18.50;99.90
18888;DHT22;9576;47.792;9.628;2022-08-04T03:43:46;18.50;99.90
18888;DHT22;9576;47.792;9.628;2022-08-04T03:47:25;18.40;99.90
18888;DHT22;9576;47.792;9.628;2022-08-04T03:50:57;18.40;99.90
18888;DHT22;9576;47.792;9.628;2022-08-04T03:58:30;18.40;99.90
18888;DHT22;9576;47.792;9.628;2022-08-04T04:05:34;18.40;99.90
18888;DHT22;9576;47.792;9.628;2022-08-04T04:08:46;18.30;99.90
18888;DHT22;9576;47.792;9.628;2022-08-04T04:12:18;18.30;99.90
18888;DHT22;9576;47.792;9.628;2022-08-04T04:16:02;18.30;99.90
18888;DHT22;9576;47.792;9.628;2022-08-04T04:19:23;18.30;99.90
18888;DHT22;9576;47.792;9.628;2022-08-04T04:22:51;18.30;99.90
18888;DHT22;9576;47.792;9.628;2022-08-04T04:26:05;18.30;99.90
18888;DHT22;9576;47.792;9.628;2022-08-04T04:29:28;18.30;99.90
18888;DHT22;9576;47.792;9.628;2022-08-04T04:32:42;18.40;99.90
18888;DHT22;9576;47.792;9.628;2022-08-04T04:35:56;18.40;99.90
18888;DHT22;9576;47.792;9.628;2022-08-04T04:39:12;18.40;99.90
18888;DHT22;9576;47.792;9.628;2022-08-04T04:42:41;18.40;99.90
18888;DHT22;9576;47.792;9.628;2022-08-04T04:45:52;18.40;99.90
18888;DHT22;9576;47.792;9.628;2022-08-04T04:49:00;18.40;99.90
18888;DHT22;9576;47.792;9.628;2022-08-04T04:52:13;18.40;99.90
18888;DHT22;9576;47.792;9.628;2022-08-04T04:55:21;18.50;99.90
18888;DHT22;9576;47.792;9.628;2022-08-04T04:58:27;18.50;99.90
18888;DHT22;9576;47.792;9.628;2022-08-04T05:01:58;18.50;99.90
18888;DHT22;9576;47.792;9.628;2022-08-04T05:05:36;18.60;99.90
18888;DHT22;9576;47.792;9.628;2022-08-04T05:09:03;18.50;99.90
18888;DHT22;9576;47.792;9.628;2022-08-04T05:12:25;18.50;99.90
18888;DHT22;9576;47.792;9.628;2022-08-04T05:15:37;18.50;99.90
18888;DHT22;9576;47.792;9.628;2022-08-04T05:18:43;18.60;99.90
18888;DHT22;9576;47.792;9.628;2022-08-04T05:21:50;18.70;99.90
18888;DHT22;9576;47.792;9.628;2022-08-04T05:25:01;18.70;99.90
18888;DHT22;9576;47.792;9.628;2022-08-04T05:28:07;18.70;99.90
18888;DHT22;9576;47.792;9.628;2022-08-04T05:31:14;18.70;99.90
18888;DHT22;9576;47.792;9.628;2022-08-04T05:34:21;18.70;99.90
18888;DHT22;9576;47.792;9.628;2022-08-04T05:37:26;18.80;99.90
18888;DHT22;9576;47.792;9.628;2022-08-04T05:40:29;18.90;99.90
18888;DHT22;9576;47.792;9.628;2022-08-04T05:43:32;18.90;99.90
18888;DHT22;9576;47.792;9.628;2022-08-04T05:46:35;18.90;99.90
18888;DHT22;9576;47.792;9.628;2022-08-04T05:49:38;18.90;99.90
18888;DHT22;9576;47.792;9.628;2022-08-04T05:52:43;18.90;99.90
18888;DHT22;9576;47.792;9.628;2022-08-04T05:55:46;19.00;99.90
18888;DHT22;9576;47.792;9.628;2022-08-04T05:58:48;19.10;99.90
18888;DHT22;9576;47.792;9.628;2022-08-04T06:01:55;19.20;99.90
18888;DHT22;9576;47.792;9.628;2022-08-04T06:04:58;19.20;99.90
18888;DHT22;9576;47.792;9.628;2022-08-04T06:08:03;19.30;99.90
18888;DHT22;9576;47.792;9.628;2022-08-04T06:11:07;19.30;99.90
18888;DHT22;9576;47.792;9.628;2022-08-04T06:14:12;19.40;99.90
18888;DHT22;9576;47.792;9.628;2022-08-04T06:17:21;19.40;99.90
18888;DHT22;9576;47.792;9.628;2022-08-04T06:20:28;19.50;99.90
18888;DHT22;9576;47.792;9.628;2022-08-04T06:23:34;19.50;99.90
18888;DHT22;9576;47.792;9.628;2022-08-04T06:26:38;19.70;99.90
18888;DHT22;9576;47.792;9.628;2022-08-04T06:29:41;19.80;99.90
18888;DHT22;9576;47.792;9.628;2022-08-04T06:32:45;19.90;99.90
18888;DHT22;9576;47.792;9.628;2022-08-04T06:35:55;19.90;99.90
18888;DHT22;9576;47.792;9.628;2022-08-04T06:39:00;20.00;99.90
18888;DHT22;9576;47.792;9.628;2022-08-04T06:42:04;20.20;99.90
18888;DHT22;9576;47.792;9.628;2022-08-04T06:45:07;20.30;99.90
18888;DHT22;9576;47.792;9.628;2022-08-04T06:48:13;20.40;99.90
18888;DHT22;9576;47.792;9.628;2022-08-04T06:51:17;20.50;99.90
18888;DHT22;9576;47.792;9.628;2022-08-04T06:54:22;20.60;99.90
18888;DHT22;9576;47.792;9.628;2022-08-04T06:57:26;20.80;99.90
18888;DHT22;9576;47.792;9.628;2022-08-04T07:00:30;20.80;99.90
18888;DHT22;9576;47.792;9.628;2022-08-04T07:03:32;20.90;99.90
18888;DHT22;9576;47.792;9.628;2022-08-04T07:06:35;20.90;99.90
18888;DHT22;9576;47.792;9.628;2022-08-04T07:09:39;21.10;99.90
18888;DHT22;9576;47.792;9.628;2022-08-04T07:12:42;21.20;99.90
18888;DHT22;9576;47.792;9.628;2022-08-04T07:15:46;21.30;99.90
18888;DHT22;9576;47.792;9.628;2022-08-04T07:18:48;21.40;99.90
18888;DHT22;9576;47.792;9.628;2022-08-04T07:21:50;21.60;99.90
18888;DHT22;9576;47.792;9.628;2022-08-04T07:24:55;21.70;99.90
18888;DHT22;9576;47.792;9.628;2022-08-04T07:27:58;21.90;99.90
18888;DHT22;9576;47.792;9.628;2022-08-04T07:31:01;22.00;99.90
18888;DHT22;9576;47.792;9.628;2022-08-04T07:34:04;22.10;99.90
18888;DHT22;9576;47.792;9.628;2022-08-04T07:37:06;22.30;99.90
18888;DHT22;9576;47.792;9.628;2022-08-04T07:40:10;22.40;99.90
18888;DHT22;9576;47.792;9.628;2022-08-04T07:43:14;22.60;99.90
18888;DHT22;9576;47.792;9.628;2022-08-04T07:46:16;22.70;99.90
18888;DHT22;9576;47.792;9.628;2022-08-04T07:49:18;22.80;99.90
18888;DHT22;9576;47.792;9.628;2022-08-04T07:52:21;23.00;99.90
18888;DHT22;9576;47.792;9.628;2022-08-04T07:55:25;23.10;99.90
18888;DHT22;9576;47.792;9.628;2022-08-04T07:58:29;23.10;99.90
18888;DHT22;9576;47.792;9.628;2022-08-04T08:01:31;23.20;99.90
18888;DHT22;9576;47.792;9.628;2022-08-04T08:04:34;23.40;99.90
18888;DHT22;9576;47.792;9.628;2022-08-04T08:07:36;23.60;99.90
18888;DHT22;9576;47.792;9.628;2022-08-04T08:10:45;23.70;99.90
18888;DHT22;9576;47.792;9.628;2022-08-04T08:13:48;23.90;99.90
18888;DHT22;9576;47.792;9.628;2022-08-04T08:16:50;24.10;99.90
18888;DHT22;9576;47.792;9.628;2022-08-04T08:19:52;24.20;99.90
18888;DHT22;9576;47.792;9.628;2022-08-04T08:22:54;24.40;99.90
18888;DHT22;9576;47.792;9.628;2022-08-04T08:25:58;24.60;99.90
18888;DHT22;9576;47.792;9.628;2022-08-04T08:29:02;24.70;99.90
18888;DHT22;9576;47.792;9.628;2022-08-04T08:32:06;24.90;99.90
18888;DHT22;9576;47.792;9.628;2022-08-04T08:35:12;25.10;99.90
18888;DHT22;9576;47.792;9.628;2022-08-04T08:38:18;25.20;99.90
18888;DHT22;9576;47.792;9.628;2022-08-04T08:41:54;25.40;99.90
18888;DHT22;9576;47.792;9.628;2022-08-04T08:48:59;25.70;99.90
18888;DHT22;9576;47.792;9.628;2022-08-04T08:52:14;25.80;99.90
18888;DHT22;9576;47.792;9.628;2022-08-04T08:55:25;26.00;99.90
18888;DHT22;9576;47.792;9.628;2022-08-04T08:58:54;26.20;99.90
18888;DHT22;9576;47.792;9.628;2022-08-04T09:05:55;26.50;99.90
18888;DHT22;9576;47.792;9.628;2022-08-04T09:09:19;26.60;99.90
18888;DHT22;9576;47.792;9.628;2022-08-04T09:12:31;26.80;99.90
18888;DHT22;9576;47.792;9.628;2022-08-04T09:15:40;26.90;99.90
18888;DHT22;9576;47.792;9.628;2022-08-04T09:18:53;27.00;99.90
18888;DHT22;9576;47.792;9.628;2022-08-04T09:22:00;27.10;99.90
18888;DHT22;9576;47.792;9.628;2022-08-04T09:25:08;27.20;99.90
18888;DHT22;9576;47.792;9.628;2022-08-04T09:28:19;27.30;99.90
18888;DHT22;9576;47.792;9.628;2022-08-04T09:31:30;27.40;99.90
18888;DHT22;9576;47.792;9.628;2022-08-04T09:34:45;27.50;99.90
18888;DHT22;9576;47.792;9.628;2022-08-04T09:37:59;27.60;99.90
18888;DHT22;9576;47.792;9.628;2022-08-04T09:41:13;27.80;99.90
18888;DHT22;9576;47.792;9.628;2022-08-04T09:44:24;28.00;99.90
18888;DHT22;9576;47.792;9.628;2022-08-04T09:47:33;28.10;99.90
18888;DHT22;9576;47.792;9.628;2022-08-04T09:50:38;28.20;99.90
18888;DHT22;9576;47.792;9.628;2022-08-04T09:53:52;28.30;99.90
18888;DHT22;9576;47.792;9.628;2022-08-04T09:57:03;28.50;99.90
18888;DHT22;9576;47.792;9.628;2022-08-04T10:00:10;28.60;99.90
18888;DHT22;9576;47.792;9.628;2022-08-04T10:03:18;28.70;99.90
18888;DHT22;9576;47.792;9.628;2022-08-04T10:06:35;28.90;99.90
18888;DHT22;9576;47.792;9.628;2022-08-04T10:09:49;29.10;99.90
18888;DHT22;9576;47.792;9.628;2022-08-04T10:13:22;29.30;99.90
18888;DHT22;9576;47.792;9.628;2022-08-04T10:16:37;29.50;99.90
18888;DHT22;9576;47.792;9.628;2022-08-04T10:19:42;29.60;99.90
18888;DHT22;9576;47.792;9.628;2022-08-04T10:22:54;29.90;99.90
18888;DHT22;9576;47.792;9.628;2022-08-04T10:26:05;29.90;99.90
18888;DHT22;9576;47.792;9.628;2022-08-04T10:29:14;30.00;99.90
18888;DHT22;9576;47.792;9.628;2022-08-04T10:32:20;30.10;99.90
18888;DHT22;9576;47.792;9.628;2022-08-04T10:35:27;30.20;99.90
18888;DHT22;9576;47.792;9.628;2022-08-04T10:38:31;30.30;99.90
18888;DHT22;9576;47.792;9.628;2022-08-04T10:41:41;30.50;99.90
18888;DHT22;9576;47.792;9.628;2022-08-04T10:44:51;30.80;99.90
18888;DHT22;9576;47.792;9.628;2022-08-04T10:48:05;30.70;99.90
18888;DHT22;9576;47.792;9.628;2022-08-04T10:51:17;30.60;99.90
18888;DHT22;9576;47.792;9.628;2022-08-04T10:54:28;30.60;99.90
18888;DHT22;9576;47.792;9.628;2022-08-04T10:57:36;30.80;99.90
18888;DHT22;9576;47.792;9.628;2022-08-04T11:00:41;30.80;99.90
18888;DHT22;9576;47.792;9.628;2022-08-04T11:03:48;30.90;99.90
18888;DHT22;9576;47.792;9.628;2022-08-04T11:06:54;30.90;99.90
18888;DHT22;9576;47.792;9.628;2022-08-04T11:09:57;31.00;99.90
18888;DHT22;9576;47.792;9.628;2022-08-04T11:13:04;31.30;99.90
18888;DHT22;9576;47.792;9.628;2022-08-04T11:16:15;31.30;99.90
18888;DHT22;9576;47.792;9.628;2022-08-04T11:19:29;31.40;99.90
18888;DHT22;9576;47.792;9.628;2022-08-04T11:22:40;31.60;99.90
18888;DHT22;9576;47.792;9.628;2022-08-04T11:25:52;31.80;99.90
18888;DHT22;9576;47.792;9.628;2022-08-04T11:29:03;32.00;99.90
18888;DHT22;9576;47.792;9.628;2022-08-04T11:32:12;32.20;99.90
18888;DHT22;9576;47.792;9.628;2022-08-04T11:35:22;32.50;99.90
18888;DHT22;9576;47.792;9.628;2022-08-04T11:38:33;32.60;99.90
18888;DHT22;9576;47.792;9.628;2022-08-04T11:41:44;32.90;99.90
18888;DHT22;9576;47.792;9.628;2022-08-04T11:44:50;33.10;99.90
18888;DHT22;9576;47.792;9.628;2022-08-04T11:47:57;33.30;99.90
18888;DHT22;9576;47.792;9.628;2022-08-04T11:51:01;33.50;98.70
18888;DHT22;9576;47.792;9.628;2022-08-04T11:54:06;33.60;96.60
18888;DHT22;9576;47.792;9.628;2022-08-04T11:57:08;33.60;96.80
18888;DHT22;9576;47.792;9.628;2022-08-04T12:00:13;33.50;96.50
18888;DHT22;9576;47.792;9.628;2022-08-04T12:03:30;33.50;96.10
18888;DHT22;9576;47.792;9.628;2022-08-04T12:06:41;33.90;99.30
18888;DHT22;9576;47.792;9.628;2022-08-04T12:09:54;34.00;95.40
18888;DHT22;9576;47.792;9.628;2022-08-04T12:13:02;34.30;95.60
18888;DHT22;9576;47.792;9.628;2022-08-04T12:16:14;34.80;98.20
18888;DHT22;9576;47.792;9.628;2022-08-04T12:19:25;35.10;95.10
18888;DHT22;9576;47.792;9.628;2022-08-04T12:22:34;35.20;91.40
18888;DHT22;9576;47.792;9.628;2022-08-04T12:25:40;35.10;90.10
18888;DHT22;9576;47.792;9.628;2022-08-04T12:28:48;35.20;91.20
18888;DHT22;9576;47.792;9.628;2022-08-04T12:31:54;35.30;90.80
18888;DHT22;9576;47.792;9.628;2022-08-04T12:35:02;35.60;91.40
18888;DHT22;9576;47.792;9.628;2022-08-04T12:38:11;35.70;92.90
18888;DHT22;9576;47.792;9.628;2022-08-04T12:41:22;35.50;88.40
18888;DHT22;9576;47.792;9.628;2022-08-04T12:44:26;35.40;84.70
18888;DHT22;9576;47.792;9.628;2022-08-04T12:47:34;35.30;85.80
18888;DHT22;9576;47.792;9.628;2022-08-04T12:50:38;35.50;83.60
18888;DHT22;9576;47.792;9.628;2022-08-04T12:53:42;35.70;84.30
18888;DHT22;9576;47.792;9.628;2022-08-04T12:56:47;35.90;86.70
18888;DHT22;9576;47.792;9.628;2022-08-04T12:59:50;36.10;84.20
18888;DHT22;9576;47.792;9.628;2022-08-04T13:02:53;36.20;83.10
18888;DHT22;9576;47.792;9.628;2022-08-04T13:05:59;36.50;82.30
18888;DHT22;9576;47.792;9.628;2022-08-04T13:09:04;36.80;88.20
18888;DHT22;9576;47.792;9.628;2022-08-04T13:12:12;36.90;79.70
18888;DHT22;9576;47.792;9.628;2022-08-04T13:15:17;37.20;85.80
18888;DHT22;9576;47.792;9.628;2022-08-04T13:18:21;37.20;77.60
18888;DHT22;9576;47.792;9.628;2022-08-04T13:21:26;37.00;78.70
18888;DHT22;9576;47.792;9.628;2022-08-04T13:24:31;37.10;82.10
18888;DHT22;9576;47.792;9.628;2022-08-04T13:27:39;37.10;81.60
18888;DHT22;9576;47.792;9.628;2022-08-04T13:30:48;37.20;79.10
18888;DHT22;9576;47.792;9.628;2022-08-04T13:34:02;37.50;82.40
18888;DHT22;9576;47.792;9.628;2022-08-04T13:37:07;37.70;76.80
18888;DHT22;9576;47.792;9.628;2022-08-04T13:40:12;37.70;74.60
18888;DHT22;9576;47.792;9.628;2022-08-04T13:43:24;37.80;76.50
18888;DHT22;9576;47.792;9.628;2022-08-04T13:46:28;38.00;81.30
18888;DHT22;9576;47.792;9.628;2022-08-04T13:49:32;37.90;77.30
18888;DHT22;9576;47.792;9.628;2022-08-04T13:52:34;38.00;76.30
18888;DHT22;9576;47.792;9.628;2022-08-04T13:55:37;38.20;78.90
18888;DHT22;9576;47.792;9.628;2022-08-04T13:58:44;38.50;80.70
18888;DHT22;9576;47.792;9.628;2022-08-04T14:01:57;38.90;72.90
18888;DHT22;9576;47.792;9.628;2022-08-04T14:05:08;38.80;74.00
18888;DHT22;9576;47.792;9.628;2022-08-04T14:08:18;39.20;74.70
18888;DHT22;9576;47.792;9.628;2022-08-04T14:11:29;39.40;70.70
18888;DHT22;9576;47.792;9.628;2022-08-04T14:14:35;39.40;70.70
18888;DHT22;9576;47.792;9.628;2022-08-04T14:17:38;39.50;70.30
18888;DHT22;9576;47.792;9.628;2022-08-04T14:20:57;40.00;76.30
18888;DHT22;9576;47.792;9.628;2022-08-04T14:23:59;40.00;69.60
18888;DHT22;9576;47.792;9.628;2022-08-04T14:27:01;40.50;82.30
18888;DHT22;9576;47.792;9.628;2022-08-04T14:30:06;41.00;74.70
18888;DHT22;9576;47.792;9.628;2022-08-04T14:33:09;41.50;72.10
18888;DHT22;9576;47.792;9.628;2022-08-04T14:36:12;41.70;70.60
18888;DHT22;9576;47.792;9.628;2022-08-04T14:39:15;41.50;64.80
18888;DHT22;9576;47.792;9.628;2022-08-04T14:42:18;41.80;68.20
18888;DHT22;9576;47.792;9.628;2022-08-04T14:45:27;41.80;62.70
18888;DHT22;9576;47.792;9.628;2022-08-04T14:48:30;42.50;68.20
18888;DHT22;9576;47.792;9.628;2022-08-04T14:51:36;42.80;65.40
18888;DHT22;9576;47.792;9.628;2022-08-04T14:54:39;43.10;64.70
18888;DHT22;9576;47.792;9.628;2022-08-04T14:57:44;43.40;62.50
18888;DHT22;9576;47.792;9.628;2022-08-04T15:00:48;43.10;60.30
18888;DHT22;9576;47.792;9.628;2022-08-04T15:03:51;43.30;61.40
18888;DHT22;9576;47.792;9.628;2022-08-04T15:06:55;43.60;63.20
18888;DHT22;9576;47.792;9.628;2022-08-04T15:09:57;44.20;59.70
18888;DHT22;9576;47.792;9.628;2022-08-04T15:13:01;44.70;59.70
18888;DHT22;9576;47.792;9.628;2022-08-04T15:16:05;45.30;62.40
18888;DHT22;9576;47.792;9.628;2022-08-04T15:19:07;45.50;59.00
18888;DHT22;9576;47.792;9.628;2022-08-04T15:22:09;46.10;57.30
18888;DHT22;9576;47.792;9.628;2022-08-04T15:25:12;46.60;59.10
18888;DHT22;9576;47.792;9.628;2022-08-04T15:28:17;46.70;55.30
18888;DHT22;9576;47.792;9.628;2022-08-04T15:31:24;46.50;53.20
18888;DHT22;9576;47.792;9.628;2022-08-04T15:34:43;46.50;55.50
18888;DHT22;9576;47.792;9.628;2022-08-04T15:37:51;46.20;53.00
18888;DHT22;9576;47.792;9.628;2022-08-04T15:41:01;46.50;55.50
18888;DHT22;9576;47.792;9.628;2022-08-04T15:44:27;46.80;56.40
18888;DHT22;9576;47.792;9.628;2022-08-04T15:47:32;47.50;52.60
18888;DHT22;9576;47.792;9.628;2022-08-04T15:50:35;47.40;50.70
18888;DHT22;9576;47.792;9.628;2022-08-04T15:54:21;47.00;52.10
18888;DHT22;9576;47.792;9.628;2022-08-04T15:57:56;47.20;54.40
18888;DHT22;9576;47.792;9.628;2022-08-04T16:01:15;47.40;50.00
18888;DHT22;9576;47.792;9.628;2022-08-04T16:04:22;47.50;49.60
18888;DHT22;9576;47.792;9.628;2022-08-04T16:07:51;48.00;49.10
18888;DHT22;9576;47.792;9.628;2022-08-04T16:10:54;47.80;47.30
18888;DHT22;9576;47.792;9.628;2022-08-04T16:14:07;47.80;47.70
18888;DHT22;9576;47.792;9.628;2022-08-04T16:17:14;48.40;49.90
18888;DHT22;9576;47.792;9.628;2022-08-04T16:20:19;48.90;50.90
18888;DHT22;9576;47.792;9.628;2022-08-04T16:23:45;49.40;48.30
18888;DHT22;9576;47.792;9.628;2022-08-04T16:26:53;49.60;47.50
18888;DHT22;9576;47.792;9.628;2022-08-04T16:30:02;50.00;51.60
18888;DHT22;9576;47.792;9.628;2022-08-04T16:33:07;49.80;46.00
18888;DHT22;9576;47.792;9.628;2022-08-04T16:36:11;49.60;46.60
18888;DHT22;9576;47.792;9.628;2022-08-04T16:39:18;49.80;46.60
18888;DHT22;9576;47.792;9.628;2022-08-04T16:42:32;50.20;48.00
18888;DHT22;9576;47.792;9.628;2022-08-04T16:45:49;49.80;45.80
18888;DHT22;9576;47.792;9.628;2022-08-04T16:49:05;48.90;45.50
18888;DHT22;9576;47.792;9.628;2022-08-04T16:52:08;48.30;45.20
18888;DHT22;9576;47.792;9.628;2022-08-04T16:55:11;47.40;46.60
18888;DHT22;9576;47.792;9.628;2022-08-04T16:58:14;47.70;47.20
18888;DHT22;9576;47.792;9.628;2022-08-04T17:01:16;48.10;45.00
18888;DHT22;9576;47.792;9.628;2022-08-04T17:04:27;48.80;45.60
18888;DHT22;9576;47.792;9.628;2022-08-04T17:07:48;48.80;45.20
18888;DHT22;9576;47.792;9.628;2022-08-04T17:10:50;48.10;47.20
18888;DHT22;9576;47.792;9.628;2022-08-04T17:13:52;48.30;49.20
18888;DHT22;9576;47.792;9.628;2022-08-04T17:16:57;48.30;47.10
18888;DHT22;9576;47.792;9.628;2022-08-04T17:19:59;48.40;49.20
18888;DHT22;9576;47.792;9.628;2022-08-04T17:23:27;47.90;48.30
18888;DHT22;9576;47.792;9.628;2022-08-04T17:26:32;47.20;50.90
18888;DHT22;9576;47.792;9.628;2022-08-04T17:29:34;46.00;50.20
18888;DHT22;9576;47.792;9.628;2022-08-04T17:32:36;44.90;51.90
18888;DHT22;9576;47.792;9.628;2022-08-04T17:35:39;43.50;52.20
18888;DHT22;9576;47.792;9.628;2022-08-04T17:38:45;42.20;54.90
18888;DHT22;9576;47.792;9.628;2022-08-04T17:41:47;40.50;56.90
18888;DHT22;9576;47.792;9.628;2022-08-04T17:45:06;38.80;58.80
18888;DHT22;9576;47.792;9.628;2022-08-04T17:48:17;37.30;62.70
18888;DHT22;9576;47.792;9.628;2022-08-04T17:51:19;36.20;64.10
18888;DHT22;9576;47.792;9.628;2022-08-04T17:54:29;35.50;68.30
18888;DHT22;9576;47.792;9.628;2022-08-04T17:57:32;35.00;67.70
18888;DHT22;9576;47.792;9.628;2022-08-04T18:00:34;34.60;71.30
18888;DHT22;9576;47.792;9.628;2022-08-04T18:03:36;34.10;72.60
18888;DHT22;9576;47.792;9.628;2022-08-04T18:06:38;33.80;74.80
18888;DHT22;9576;47.792;9.628;2022-08-04T18:09:52;33.30;76.30
18888;DHT22;9576;47.792;9.628;2022-08-04T18:13:05;33.00;78.30
18888;DHT22;9576;47.792;9.628;2022-08-04T18:16:08;32.70;79.80
18888;DHT22;9576;47.792;9.628;2022-08-04T18:19:12;32.30;81.90
18888;DHT22;9576;47.792;9.628;2022-08-04T18:22:14;31.80;82.70
18888;DHT22;9576;47.792;9.628;2022-08-04T18:25:19;31.40;84.50
18888;DHT22;9576;47.792;9.628;2022-08-04T18:28:21;30.90;85.50
18888;DHT22;9576;47.792;9.628;2022-08-04T18:31:24;30.70;83.30
18888;DHT22;9576;47.792;9.628;2022-08-04T18:34:26;30.30;82.70
18888;DHT22;9576;47.792;9.628;2022-08-04T18:37:28;30.00;83.10
18888;DHT22;9576;47.792;9.628;2022-08-04T18:40:32;29.80;85.10
18888;DHT22;9576;47.792;9.628;2022-08-04T18:43:35;29.70;84.30
18888;DHT22;9576;47.792;9.628;2022-08-04T18:46:37;29.50;83.50
18888;DHT22;9576;47.792;9.628;2022-08-04T18:49:40;29.40;86.60
18888;DHT22;9576;47.792;9.628;2022-08-04T18:52:42;29.20;86.60
18888;DHT22;9576;47.792;9.628;2022-08-04T18:55:46;29.00;87.70
18888;DHT22;9576;47.792;9.628;2022-08-04T18:58:48;28.90;88.30
18888;DHT22;9576;47.792;9.628;2022-08-04T19:01:51;28.60;88.30
18888;DHT22;9576;47.792;9.628;2022-08-04T19:04:53;28.50;88.90
18888;DHT22;9576;47.792;9.628;2022-08-04T19:07:55;28.50;88.20
18888;DHT22;9576;47.792;9.628;2022-08-04T19:10:58;28.50;89.00
18888;DHT22;9576;47.792;9.628;2022-08-04T19:14:01;28.50;88.50
18888;DHT22;9576;47.792;9.628;2022-08-04T19:17:03;28.50;88.10
18888;DHT22;9576;47.792;9.628;2022-08-04T19:20:06;28.50;89.80
18888;DHT22;9576;47.792;9.628;2022-08-04T19:23:09;28.50;90.20
18888;DHT22;9576;47.792;9.628;2022-08-04T19:26:12;28.50;90.90
18888;DHT22;9576;47.792;9.628;2022-08-04T19:29:14;28.30;91.00
18888;DHT22;9576;47.792;9.628;2022-08-04T19:32:18;28.20;91.40
18888;DHT22;9576;47.792;9.628;2022-08-04T19:35:20;28.10;91.30
18888;DHT22;9576;47.792;9.628;2022-08-04T19:38:22;27.90;92.10
18888;DHT22;9576;47.792;9.628;2022-08-04T19:41:26;27.80;91.90
18888;DHT22;9576;47.792;9.628;2022-08-04T19:44:29;27.60;92.50
18888;DHT22;9576;47.792;9.628;2022-08-04T19:47:31;27.50;93.30
18888;DHT22;9576;47.792;9.628;2022-08-04T19:50:33;27.30;93.60
18888;DHT22;9576;47.792;9.628;2022-08-04T19:53:35;27.20;94.00
18888;DHT22;9576;47.792;9.628;2022-08-04T19:56:39;27.10;94.30
18888;DHT22;9576;47.792;9.628;2022-08-04T19:59:41;27.00;94.60
18888;DHT22;9576;47.792;9.628;2022-08-04T20:02:44;26.80;94.70
18888;DHT22;9576;47.792;9.628;2022-08-04T20:05:46;26.70;95.20
18888;DHT22;9576;47.792;9.628;2022-08-04T20:08:49;26.70;95.60
18888;DHT22;9576;47.792;9.628;2022-08-04T20:11:53;26.50;95.50
18888;DHT22;9576;47.792;9.628;2022-08-04T20:14:55;26.40;95.80
18888;DHT22;9576;47.792;9.628;2022-08-04T20:17:58;26.30;96.00
18888;DHT22;9576;47.792;9.628;2022-08-04T20:21:00;26.20;95.80
18888;DHT22;9576;47.792;9.628;2022-08-04T20:24:03;26.10;96.20
18888;DHT22;9576;47.792;9.628;2022-08-04T20:27:06;26.00;96.40
18888;DHT22;9576;47.792;9.628;2022-08-04T20:30:10;25.90;96.80
18888;DHT22;9576;47.792;9.628;2022-08-04T20:33:12;25.80;97.20
18888;DHT22;9576;47.792;9.628;2022-08-04T20:36:14;25.60;97.60
18888;DHT22;9576;47.792;9.628;2022-08-04T20:39:16;25.60;97.80
18888;DHT22;9576;47.792;9.628;2022-08-04T20:42:20;25.50;97.90
18888;DHT22;9576;47.792;9.628;2022-08-04T20:45:22;25.40;98.50